sensor_id;sensor_type;location;lat;lon;timestamp;P1;durP1;ratioP1;P2;durP2;ratioP2
18023;SDS011;9137;50.960;3.118;2022-08-20T00:01:37;9.73;;;3.40;;
18023;SDS011;9137;50.960;3.118;2022-08-20T00:04:03;9.27;;;3.63;;
18023;SDS011;9137;50.960;3.118;2022-08-20T00:06:31;9.02;;;4.20;;
18023;SDS011;9137;50.960;3.118;2022-08-20T00:08:58;14.18;;;3.75;;
18023;SDS011;9137;50.960;3.118;2022-08-20T00:11:26;10.60;;;4.15;;
18023;SDS011;9137;50.960;3.118;2022-08-20T00:13:54;6.97;;;3.50;;
18023;SDS011;9137;50.960;3.118;2022-08-20T00:16:24;10.13;;;3.88;;
18023;SDS011;9137;50.960;3.118;2022-08-20T00:18:52;7.32;;;3.50;;
18023;SDS011;9137;50.960;3.118;2022-08-20T00:21:20;10.48;;;3.72;;
18023;SDS011;9137;50.960;3.118;2022-08-20T00:23:49;11.35;;;4.05;;
18023;SDS011;9137;50.960;3.118;2022-08-20T00:26:17;11.68;;;3.90;;
18023;SDS011;9137;50.960;3.118;2022-08-20T00:28:46;10.85;;;3.85;;
18023;SDS011;9137;50.960;3.118;2022-08-20T00:31:15;8.87;;;3.53;;
18023;SDS011;9137;50.960;3.118;2022-08-20T00:33:45;9.85;;;4.00;;
18023;SDS011;9137;50.960;3.118;2022-08-20T00:36:12;10.07;;;4.07;;
18023;SDS011;9137;50.960;3.118;2022-08-20T00:38:42;11.30;;;4.30;;
18023;SDS011;9137;50.960;3.118;2022-08-20T00:41:11;12.73;;;4.43;;
18023;SDS011;9137;50.960;3.118;2022-08-20T00:43:41;11.40;;;4.20;;
18023;SDS011;9137;50.960;3.118;2022-08-20T00:46:11;11.70;;;4.07;;
18023;SDS011;9137;50.960;3.118;2022-08-20T00:48:42;13.27;;;4.72;;
18023;SDS011;9137;50.960;3.118;2022-08-20T00:51:13;8.50;;;3.50;;
18023;SDS011;9137;50.960;3.118;2022-08-20T00:53:46;11.63;;;4.00;;
18023;SDS011;9137;50.960;3.118;2022-08-20T00:56:13;10.48;;;4.20;;
18023;SDS011;9137;50.960;3.118;2022-08-20T00:58:41;10.05;;;4.45;;
18023;SDS011;9137;50.960;3.118;2022-08-20T01:01:11;13.52;;;4.22;;
18023;SDS011;9137;50.960;3.118;2022-08-20T01:03:39;10.88;;;4.18;;
18023;SDS011;9137;50.960;3.118;2022-08-20T01:06:07;10.32;;;3.72;;
18023;SDS011;9137;50.960;3.118;2022-08-20T01:08:36;11.52;;;4.10;;
18023;SDS011;9137;50.960;3.118;2022-08-20T01:11:05;12.77;;;4.10;;
18023;SDS011;9137;50.960;3.118;2022-08-20T01:13:37;9.15;;;3.75;;
18023;SDS011;9137;50.960;3.118;2022-08-20T01:16:08;8.40;;;3.90;;
18023;SDS011;9137;50.960;3.118;2022-08-20T01:18:42;9.70;;;3.80;;
18023;SDS011;9137;50.960;3.118;2022-08-20T01:21:12;7.43;;;4.03;;
18023;SDS011;9137;50.960;3.118;2022-08-20T01:23:42;10.38;;;4.20;;
18023;SDS011;9137;50.960;3.118;2022-08-20T01:26:17;13.18;;;4.15;;
18023;SDS011;9137;50.960;3.118;2022-08-20T01:28:48;11.00;;;4.17;;
18023;SDS011;9137;50.960;3.118;2022-08-20T01:31:18;10.70;;;4.13;;
18023;SDS011;9137;50.960;3.118;2022-08-20T01:33:46;9.57;;;4.23;;
18023;SDS011;9137;50.960;3.118;2022-08-20T01:36:15;9.43;;;3.92;;
18023;SDS011;9137;50.960;3.118;2022-08-20T01:38:44;7.22;;;3.42;;
18023;SDS011;9137;50.960;3.118;2022-08-20T01:41:18;9.80;;;3.90;;
18023;SDS011;9137;50.960;3.118;2022-08-20T01:43:54;11.32;;;3.95;;
18023;SDS011;9137;50.960;3.118;2022-08-20T01:46:23;7.78;;;3.83;;
18023;SDS011;9137;50.960;3.118;2022-08-20T01:48:51;9.35;;;3.83;;
18023;SDS011;9137;50.960;3.118;2022-08-20T01:51:20;10.77;;;3.72;;
18023;SDS011;9137;50.960;3.118;2022-08-20T01:53:50;10.90;;;4.03;;
18023;SDS011;9137;50.960;3.118;2022-08-20T01:56:21;9.35;;;3.97;;
18023;SDS011;9137;50.960;3.118;2022-08-20T01:58:50;7.72;;;3.42;;
18023;SDS011;9137;50.960;3.118;2022-08-20T02:01:24;7.53;;;3.97;;
18023;SDS011;9137;50.960;3.118;2022-08-20T02:03:54;9.02;;;3.90;;
18023;SDS011;9137;50.960;3.118;2022-08-20T02:06:22;8.50;;;3.95;;
18023;SDS011;9137;50.960;3.118;2022-08-20T02:08:51;8.90;;;4.00;;
18023;SDS011;9137;50.960;3.118;2022-08-20T02:11:21;11.25;;;3.85;;
18023;SDS011;9137;50.960;3.118;2022-08-20T02:13:49;9.40;;;3.70;;
18023;SDS011;9137;50.960;3.118;2022-08-20T02:16:18;8.97;;;4.10;;
18023;SDS011;9137;50.960;3.118;2022-08-20T02:18:47;7.85;;;3.95;;
18023;SDS011;9137;50.960;3.118;2022-08-20T02:21:15;8.65;;;4.28;;
18023;SDS011;9137;50.960;3.118;2022-08-20T02:23:42;9.35;;;4.05;;
18023;SDS011;9137;50.960;3.118;2022-08-20T02:26:09;8.50;;;4.10;;
18023;SDS011;9137;50.960;3.118;2022-08-20T02:28:38;7.90;;;4.13;;
18023;SDS011;9137;50.960;3.118;2022-08-20T02:31:05;6.80;;;3.70;;
18023;SDS011;9137;50.960;3.118;2022-08-20T02:33:33;11.63;;;4.55;;
18023;SDS011;9137;50.960;3.118;2022-08-20T02:36:01;9.82;;;4.13;;
18023;SDS011;9137;50.960;3.118;2022-08-20T02:38:28;9.15;;;3.63;;
18023;SDS011;9137;50.960;3.118;2022-08-20T02:40:55;8.18;;;3.70;;
18023;SDS011;9137;50.960;3.118;2022-08-20T02:43:22;9.55;;;4.13;;
18023;SDS011;9137;50.960;3.118;2022-08-20T02:45:50;8.07;;;3.67;;
18023;SDS011;9137;50.960;3.118;2022-08-20T02:48:18;7.50;;;3.72;;
18023;SDS011;9137;50.960;3.118;2022-08-20T02:50:48;6.93;;;3.70;;
18023;SDS011;9137;50.960;3.118;2022-08-20T02:53:17;7.15;;;3.90;;
18023;SDS011;9137;50.960;3.118;2022-08-20T02:55:44;10.67;;;3.70;;
18023;SDS011;9137;50.960;3.118;2022-08-20T02:58:11;9.40;;;3.72;;
18023;SDS011;9137;50.960;3.118;2022-08-20T03:00:38;9.85;;;4.03;;
18023;SDS011;9137;50.960;3.118;2022-08-20T03:03:07;7.63;;;3.60;;
18023;SDS011;9137;50.960;3.118;2022-08-20T03:05:36;8.57;;;3.80;;
18023;SDS011;9137;50.960;3.118;2022-08-20T03:08:05;7.47;;;3.67;;
18023;SDS011;9137;50.960;3.118;2022-08-20T03:10:34;6.87;;;3.77;;
18023;SDS011;9137;50.960;3.118;2022-08-20T03:13:02;8.57;;;4.00;;
18023;SDS011;9137;50.960;3.118;2022-08-20T03:15:31;8.88;;;3.88;;
18023;SDS011;9137;50.960;3.118;2022-08-20T03:17:59;7.70;;;4.00;;
18023;SDS011;9137;50.960;3.118;2022-08-20T03:20:28;7.78;;;4.22;;
18023;SDS011;9137;50.960;3.118;2022-08-20T03:22:55;6.85;;;3.47;;
18023;SDS011;9137;50.960;3.118;2022-08-20T03:25:23;7.97;;;3.78;;
18023;SDS011;9137;50.960;3.118;2022-08-20T03:27:50;8.23;;;3.65;;
18023;SDS011;9137;50.960;3.118;2022-08-20T03:30:17;9.98;;;3.97;;
18023;SDS011;9137;50.960;3.118;2022-08-20T03:32:45;9.63;;;3.72;;
18023;SDS011;9137;50.960;3.118;2022-08-20T03:35:13;8.02;;;3.42;;
18023;SDS011;9137;50.960;3.118;2022-08-20T03:37:42;8.07;;;3.60;;
18023;SDS011;9137;50.960;3.118;2022-08-20T03:40:10;8.77;;;4.05;;
18023;SDS011;9137;50.960;3.118;2022-08-20T03:42:40;8.93;;;3.70;;
18023;SDS011;9137;50.960;3.118;2022-08-20T03:45:08;7.25;;;3.80;;
18023;SDS011;9137;50.960;3.118;2022-08-20T03:47:36;6.60;;;3.63;;
18023;SDS011;9137;50.960;3.118;2022-08-20T03:50:03;7.35;;;3.38;;
18023;SDS011;9137;50.960;3.118;2022-08-20T03:52:33;6.60;;;3.05;;
18023;SDS011;9137;50.960;3.118;2022-08-20T03:55:04;8.35;;;3.80;;
18023;SDS011;9137;50.960;3.118;2022-08-20T03:57:31;6.80;;;4.07;;
18023;SDS011;9137;50.960;3.118;2022-08-20T03:59:59;6.93;;;3.75;;
18023;SDS011;9137;50.960;3.118;2022-08-20T04:02:26;8.63;;;4.18;;
18023;SDS011;9137;50.960;3.118;2022-08-20T04:04:53;7.45;;;3.70;;
18023;SDS011;9137;50.960;3.118;2022-08-20T04:07:20;4.97;;;3.20;;
18023;SDS011;9137;50.960;3.118;2022-08-20T04:09:51;7.88;;;3.45;;
18023;SDS011;9137;50.960;3.118;2022-08-20T04:12:20;6.57;;;3.90;;
18023;SDS011;9137;50.960;3.118;2022-08-20T04:14:49;6.25;;;3.45;;
18023;SDS011;9137;50.960;3.118;2022-08-20T04:17:18;7.72;;;3.45;;
18023;SDS011;9137;50.960;3.118;2022-08-20T04:19:45;6.85;;;3.72;;
18023;SDS011;9137;50.960;3.118;2022-08-20T04:22:12;4.70;;;3.30;;
18023;SDS011;9137;50.960;3.118;2022-08-20T04:24:40;5.97;;;3.00;;
18023;SDS011;9137;50.960;3.118;2022-08-20T04:27:08;8.45;;;3.80;;
18023;SDS011;9137;50.960;3.118;2022-08-20T04:29:39;7.80;;;3.57;;
18023;SDS011;9137;50.960;3.118;2022-08-20T04:32:07;10.80;;;3.92;;
18023;SDS011;9137;50.960;3.118;2022-08-20T04:34:34;5.53;;;3.58;;
18023;SDS011;9137;50.960;3.118;2022-08-20T04:37:01;8.50;;;3.50;;
18023;SDS011;9137;50.960;3.118;2022-08-20T04:39:28;6.30;;;3.60;;
18023;SDS011;9137;50.960;3.118;2022-08-20T04:41:55;10.15;;;4.07;;
18023;SDS011;9137;50.960;3.118;2022-08-20T04:44:22;8.82;;;3.80;;
18023;SDS011;9137;50.960;3.118;2022-08-20T04:46:50;5.17;;;3.40;;
18023;SDS011;9137;50.960;3.118;2022-08-20T04:49:17;5.80;;;3.33;;
18023;SDS011;9137;50.960;3.118;2022-08-20T04:51:50;6.57;;;3.88;;
18023;SDS011;9137;50.960;3.118;2022-08-20T04:54:18;7.65;;;3.80;;
18023;SDS011;9137;50.960;3.118;2022-08-20T04:56:45;7.07;;;3.60;;
18023;SDS011;9137;50.960;3.118;2022-08-20T04:59:13;7.32;;;3.70;;
18023;SDS011;9137;50.960;3.118;2022-08-20T05:01:40;6.47;;;3.63;;
18023;SDS011;9137;50.960;3.118;2022-08-20T05:04:08;5.30;;;3.60;;
18023;SDS011;9137;50.960;3.118;2022-08-20T05:06:35;7.43;;;3.47;;
18023;SDS011;9137;50.960;3.118;2022-08-20T05:09:02;7.47;;;3.50;;
18023;SDS011;9137;50.960;3.118;2022-08-20T05:11:29;6.78;;;3.58;;
18023;SDS011;9137;50.960;3.118;2022-08-20T05:13:56;7.85;;;3.40;;
18023;SDS011;9137;50.960;3.118;2022-08-20T05:16:23;7.00;;;3.60;;
18023;SDS011;9137;50.960;3.118;2022-08-20T05:18:50;6.75;;;3.55;;
18023;SDS011;9137;50.960;3.118;2022-08-20T05:21:19;7.43;;;3.55;;
18023;SDS011;9137;50.960;3.118;2022-08-20T05:23:47;5.93;;;3.30;;
18023;SDS011;9137;50.960;3.118;2022-08-20T05:26:13;8.60;;;3.90;;
18023;SDS011;9137;50.960;3.118;2022-08-20T05:28:41;8.80;;;3.73;;
18023;SDS011;9137;50.960;3.118;2022-08-20T05:31:09;10.32;;;3.88;;
18023;SDS011;9137;50.960;3.118;2022-08-20T05:33:36;5.65;;;3.13;;
18023;SDS011;9137;50.960;3.118;2022-08-20T05:36:04;6.93;;;3.55;;
18023;SDS011;9137;50.960;3.118;2022-08-20T05:38:34;8.60;;;3.97;;
18023;SDS011;9137;50.960;3.118;2022-08-20T05:41:02;7.10;;;3.60;;
18023;SDS011;9137;50.960;3.118;2022-08-20T05:43:29;6.38;;;3.20;;
18023;SDS011;9137;50.960;3.118;2022-08-20T05:45:57;8.00;;;3.50;;
18023;SDS011;9137;50.960;3.118;2022-08-20T05:48:25;7.80;;;3.35;;
18023;SDS011;9137;50.960;3.118;2022-08-20T05:50:52;7.28;;;3.72;;
18023;SDS011;9137;50.960;3.118;2022-08-20T05:53:21;8.10;;;3.05;;
18023;SDS011;9137;50.960;3.118;2022-08-20T05:55:51;8.45;;;3.75;;
18023;SDS011;9137;50.960;3.118;2022-08-20T05:58:19;5.85;;;3.55;;
18023;SDS011;9137;50.960;3.118;2022-08-20T06:00:49;7.45;;;3.83;;
18023;SDS011;9137;50.960;3.118;2022-08-20T06:03:17;7.63;;;3.20;;
18023;SDS011;9137;50.960;3.118;2022-08-20T06:06:02;6.55;;;3.22;;
18023;SDS011;9137;50.960;3.118;2022-08-20T06:08:30;9.43;;;3.90;;
18023;SDS011;9137;50.960;3.118;2022-08-20T06:10:58;5.90;;;3.20;;
18023;SDS011;9137;50.960;3.118;2022-08-20T06:13:25;5.38;;;3.28;;
18023;SDS011;9137;50.960;3.118;2022-08-20T06:15:53;5.67;;;2.87;;
18023;SDS011;9137;50.960;3.118;2022-08-20T06:18:20;6.13;;;3.10;;
18023;SDS011;9137;50.960;3.118;2022-08-20T06:20:48;6.50;;;3.00;;
18023;SDS011;9137;50.960;3.118;2022-08-20T06:23:15;7.40;;;3.10;;
18023;SDS011;9137;50.960;3.118;2022-08-20T06:25:42;6.15;;;2.85;;
18023;SDS011;9137;50.960;3.118;2022-08-20T06:28:11;7.15;;;3.13;;
18023;SDS011;9137;50.960;3.118;2022-08-20T06:30:39;6.00;;;3.38;;
18023;SDS011;9137;50.960;3.118;2022-08-20T06:33:06;7.40;;;2.83;;
18023;SDS011;9137;50.960;3.118;2022-08-20T06:35:33;7.10;;;3.20;;
18023;SDS011;9137;50.960;3.118;2022-08-20T06:38:02;7.22;;;3.25;;
18023;SDS011;9137;50.960;3.118;2022-08-20T06:40:30;8.53;;;3.23;;
18023;SDS011;9137;50.960;3.118;2022-08-20T06:42:58;6.40;;;3.28;;
18023;SDS011;9137;50.960;3.118;2022-08-20T06:45:28;9.38;;;3.65;;
18023;SDS011;9137;50.960;3.118;2022-08-20T06:47:58;7.30;;;3.33;;
18023;SDS011;9137;50.960;3.118;2022-08-20T06:50:28;5.80;;;2.92;;
18023;SDS011;9137;50.960;3.118;2022-08-20T06:52:56;4.88;;;2.70;;
18023;SDS011;9137;50.960;3.118;2022-08-20T06:55:24;8.40;;;3.05;;
18023;SDS011;9137;50.960;3.118;2022-08-20T06:57:55;6.10;;;2.70;;
18023;SDS011;9137;50.960;3.118;2022-08-20T07:00:23;6.70;;;3.08;;
18023;SDS011;9137;50.960;3.118;2022-08-20T07:02:52;9.25;;;2.92;;
18023;SDS011;9137;50.960;3.118;2022-08-20T07:05:19;8.20;;;3.40;;
18023;SDS011;9137;50.960;3.118;2022-08-20T07:07:46;9.45;;;3.17;;
18023;SDS011;9137;50.960;3.118;2022-08-20T07:10:15;5.38;;;2.50;;
18023;SDS011;9137;50.960;3.118;2022-08-20T07:12:45;6.38;;;3.00;;
18023;SDS011;9137;50.960;3.118;2022-08-20T07:15:14;8.30;;;3.00;;
18023;SDS011;9137;50.960;3.118;2022-08-20T07:17:47;4.72;;;2.70;;
18023;SDS011;9137;50.960;3.118;2022-08-20T07:20:16;10.27;;;3.13;;
18023;SDS011;9137;50.960;3.118;2022-08-20T07:22:43;4.20;;;2.63;;
18023;SDS011;9137;50.960;3.118;2022-08-20T07:25:10;6.72;;;2.83;;
18023;SDS011;9137;50.960;3.118;2022-08-20T07:27:40;7.72;;;3.10;;
18023;SDS011;9137;50.960;3.118;2022-08-20T07:30:08;5.80;;;2.87;;
18023;SDS011;9137;50.960;3.118;2022-08-20T07:32:55;7.03;;;2.80;;
18023;SDS011;9137;50.960;3.118;2022-08-20T07:35:23;6.10;;;2.90;;
18023;SDS011;9137;50.960;3.118;2022-08-20T07:37:51;5.88;;;2.78;;
18023;SDS011;9137;50.960;3.118;2022-08-20T07:40:20;5.82;;;2.70;;
18023;SDS011;9137;50.960;3.118;2022-08-20T07:42:51;5.50;;;2.45;;
18023;SDS011;9137;50.960;3.118;2022-08-20T07:45:18;5.18;;;2.70;;
18023;SDS011;9137;50.960;3.118;2022-08-20T07:47:47;5.07;;;2.53;;
18023;SDS011;9137;50.960;3.118;2022-08-20T07:50:15;6.90;;;2.17;;
18023;SDS011;9137;50.960;3.118;2022-08-20T07:52:45;4.22;;;2.10;;
18023;SDS011;9137;50.960;3.118;2022-08-20T07:55:16;5.20;;;2.73;;
18023;SDS011;9137;50.960;3.118;2022-08-20T07:57:46;5.07;;;2.45;;
18023;SDS011;9137;50.960;3.118;2022-08-20T08:00:15;4.87;;;2.20;;
18023;SDS011;9137;50.960;3.118;2022-08-20T08:02:43;4.60;;;1.98;;
18023;SDS011;9137;50.960;3.118;2022-08-20T08:05:10;4.30;;;1.90;;
18023;SDS011;9137;50.960;3.118;2022-08-20T08:07:38;5.63;;;2.00;;
18023;SDS011;9137;50.960;3.118;2022-08-20T08:10:08;4.53;;;2.05;;
18023;SDS011;9137;50.960;3.118;2022-08-20T08:12:40;4.43;;;2.03;;
18023;SDS011;9137;50.960;3.118;2022-08-20T08:15:12;3.58;;;2.10;;
18023;SDS011;9137;50.960;3.118;2022-08-20T08:17:42;3.30;;;2.00;;
18023;SDS011;9137;50.960;3.118;2022-08-20T08:20:12;5.93;;;1.97;;
18023;SDS011;9137;50.960;3.118;2022-08-20T08:22:40;4.13;;;1.50;;
18023;SDS011;9137;50.960;3.118;2022-08-20T08:25:09;3.72;;;1.77;;
18023;SDS011;9137;50.960;3.118;2022-08-20T08:27:37;5.43;;;1.92;;
18023;SDS011;9137;50.960;3.118;2022-08-20T08:30:05;5.85;;;1.50;;
18023;SDS011;9137;50.960;3.118;2022-08-20T08:32:33;4.13;;;1.52;;
18023;SDS011;9137;50.960;3.118;2022-08-20T08:35:02;2.70;;;1.25;;
18023;SDS011;9137;50.960;3.118;2022-08-20T08:37:33;2.10;;;1.20;;
18023;SDS011;9137;50.960;3.118;2022-08-20T08:40:02;4.28;;;1.15;;
18023;SDS011;9137;50.960;3.118;2022-08-20T08:42:42;4.53;;;1.25;;
18023;SDS011;9137;50.960;3.118;2022-08-20T08:45:12;2.83;;;1.25;;
18023;SDS011;9137;50.960;3.118;2022-08-20T08:47:41;6.50;;;1.50;;
18023;SDS011;9137;50.960;3.118;2022-08-20T08:50:13;3.60;;;1.60;;
18023;SDS011;9137;50.960;3.118;2022-08-20T08:52:46;3.80;;;1.30;;
18023;SDS011;9137;50.960;3.118;2022-08-20T08:55:18;5.63;;;1.63;;
18023;SDS011;9137;50.960;3.118;2022-08-20T08:57:48;3.80;;;1.97;;
18023;SDS011;9137;50.960;3.118;2022-08-20T09:00:19;4.23;;;1.50;;
18023;SDS011;9137;50.960;3.118;2022-08-20T09:02:53;3.95;;;1.48;;
18023;SDS011;9137;50.960;3.118;2022-08-20T09:05:23;4.15;;;1.50;;
18023;SDS011;9137;50.960;3.118;2022-08-20T09:07:55;4.57;;;1.80;;
18023;SDS011;9137;50.960;3.118;2022-08-20T09:10:26;6.25;;;1.50;;
18023;SDS011;9137;50.960;3.118;2022-08-20T09:12:55;3.37;;;1.37;;
18023;SDS011;9137;50.960;3.118;2022-08-20T09:15:22;4.95;;;1.48;;
18023;SDS011;9137;50.960;3.118;2022-08-20T09:17:49;3.65;;;1.33;;
18023;SDS011;9137;50.960;3.118;2022-08-20T09:20:16;3.85;;;1.48;;
18023;SDS011;9137;50.960;3.118;2022-08-20T09:22:43;5.43;;;1.37;;
18023;SDS011;9137;50.960;3.118;2022-08-20T09:25:10;2.67;;;1.27;;
18023;SDS011;9137;50.960;3.118;2022-08-20T09:27:38;3.83;;;1.40;;
18023;SDS011;9137;50.960;3.118;2022-08-20T09:30:06;3.17;;;1.27;;
18023;SDS011;9137;50.960;3.118;2022-08-20T09:32:34;3.78;;;1.30;;
18023;SDS011;9137;50.960;3.118;2022-08-20T09:35:01;4.70;;;1.50;;
18023;SDS011;9137;50.960;3.118;2022-08-20T09:37:30;5.07;;;1.45;;
18023;SDS011;9137;50.960;3.118;2022-08-20T09:39:57;3.65;;;1.20;;
18023;SDS011;9137;50.960;3.118;2022-08-20T09:42:26;2.95;;;1.20;;
18023;SDS011;9137;50.960;3.118;2022-08-20T09:44:54;4.82;;;1.30;;
18023;SDS011;9137;50.960;3.118;2022-08-20T09:47:23;2.80;;;0.93;;
18023;SDS011;9137;50.960;3.118;2022-08-20T09:49:51;3.88;;;1.23;;
18023;SDS011;9137;50.960;3.118;2022-08-20T09:52:20;3.22;;;0.93;;
18023;SDS011;9137;50.960;3.118;2022-08-20T09:54:49;3.13;;;0.73;;
18023;SDS011;9137;50.960;3.118;2022-08-20T09:57:18;1.70;;;0.80;;
18023;SDS011;9137;50.960;3.118;2022-08-20T09:59:47;2.50;;;1.27;;
18023;SDS011;9137;50.960;3.118;2022-08-20T10:02:18;2.10;;;0.80;;
18023;SDS011;9137;50.960;3.118;2022-08-20T10:04:47;4.07;;;1.27;;
18023;SDS011;9137;50.960;3.118;2022-08-20T10:07:13;2.40;;;1.00;;
18023;SDS011;9137;50.960;3.118;2022-08-20T10:09:40;3.05;;;1.10;;
18023;SDS011;9137;50.960;3.118;2022-08-20T10:12:07;3.03;;;1.10;;
18023;SDS011;9137;50.960;3.118;2022-08-20T10:14:34;2.92;;;1.70;;
18023;SDS011;9137;50.960;3.118;2022-08-20T10:17:01;2.20;;;1.00;;
18023;SDS011;9137;50.960;3.118;2022-08-20T10:19:29;2.50;;;1.25;;
18023;SDS011;9137;50.960;3.118;2022-08-20T10:21:58;4.90;;;1.88;;
18023;SDS011;9137;50.960;3.118;2022-08-20T10:24:26;2.65;;;1.25;;
18023;SDS011;9137;50.960;3.118;2022-08-20T10:26:54;1.93;;;1.20;;
18023;SDS011;9137;50.960;3.118;2022-08-20T10:29:21;4.50;;;1.48;;
18023;SDS011;9137;50.960;3.118;2022-08-20T10:31:48;3.65;;;1.45;;
18023;SDS011;9137;50.960;3.118;2022-08-20T10:34:16;2.30;;;1.27;;
18023;SDS011;9137;50.960;3.118;2022-08-20T10:36:42;2.90;;;1.13;;
18023;SDS011;9137;50.960;3.118;2022-08-20T10:39:11;2.88;;;1.23;;
18023;SDS011;9137;50.960;3.118;2022-08-20T10:41:38;2.28;;;1.38;;
18023;SDS011;9137;50.960;3.118;2022-08-20T10:44:05;4.10;;;1.38;;
18023;SDS011;9137;50.960;3.118;2022-08-20T10:46:33;3.92;;;1.00;;
18023;SDS011;9137;50.960;3.118;2022-08-20T10:49:00;3.10;;;1.10;;
18023;SDS011;9137;50.960;3.118;2022-08-20T10:51:27;2.45;;;1.10;;
18023;SDS011;9137;50.960;3.118;2022-08-20T10:53:53;2.42;;;1.33;;
18023;SDS011;9137;50.960;3.118;2022-08-20T10:56:22;2.08;;;0.85;;
18023;SDS011;9137;50.960;3.118;2022-08-20T10:58:49;4.05;;;1.30;;
18023;SDS011;9137;50.960;3.118;2022-08-20T11:01:16;2.47;;;1.17;;
18023;SDS011;9137;50.960;3.118;2022-08-20T11:03:43;2.95;;;1.10;;
18023;SDS011;9137;50.960;3.118;2022-08-20T11:06:10;2.92;;;1.20;;
18023;SDS011;9137;50.960;3.118;2022-08-20T11:08:37;3.60;;;1.30;;
18023;SDS011;9137;50.960;3.118;2022-08-20T11:11:04;4.25;;;1.30;;
18023;SDS011;9137;50.960;3.118;2022-08-20T11:13:33;2.90;;;1.17;;
18023;SDS011;9137;50.960;3.118;2022-08-20T11:16:01;3.13;;;1.20;;
18023;SDS011;9137;50.960;3.118;2022-08-20T11:18:29;2.17;;;1.10;;
18023;SDS011;9137;50.960;3.118;2022-08-20T11:20:57;3.10;;;1.35;;
18023;SDS011;9137;50.960;3.118;2022-08-20T11:23:24;3.05;;;1.05;;
18023;SDS011;9137;50.960;3.118;2022-08-20T11:25:52;1.33;;;1.00;;
18023;SDS011;9137;50.960;3.118;2022-08-20T11:28:19;1.73;;;1.05;;
18023;SDS011;9137;50.960;3.118;2022-08-20T11:30:48;3.97;;;1.07;;
18023;SDS011;9137;50.960;3.118;2022-08-20T11:33:15;3.47;;;1.10;;
18023;SDS011;9137;50.960;3.118;2022-08-20T11:35:41;2.15;;;1.10;;
18023;SDS011;9137;50.960;3.118;2022-08-20T11:38:08;3.40;;;1.20;;
18023;SDS011;9137;50.960;3.118;2022-08-20T11:40:36;2.83;;;0.88;;
18023;SDS011;9137;50.960;3.118;2022-08-20T11:43:03;3.80;;;1.00;;
18023;SDS011;9137;50.960;3.118;2022-08-20T11:45:30;3.75;;;0.90;;
18023;SDS011;9137;50.960;3.118;2022-08-20T11:47:58;2.28;;;1.08;;
18023;SDS011;9137;50.960;3.118;2022-08-20T11:50:25;2.90;;;1.20;;
18023;SDS011;9137;50.960;3.118;2022-08-20T11:52:52;1.77;;;0.93;;
18023;SDS011;9137;50.960;3.118;2022-08-20T11:55:19;3.58;;;1.08;;
18023;SDS011;9137;50.960;3.118;2022-08-20T11:57:46;2.30;;;1.15;;
18023;SDS011;9137;50.960;3.118;2022-08-20T12:00:15;2.43;;;0.87;;
18023;SDS011;9137;50.960;3.118;2022-08-20T12:02:45;3.78;;;0.98;;
18023;SDS011;9137;50.960;3.118;2022-08-20T12:05:14;2.67;;;0.98;;
18023;SDS011;9137;50.960;3.118;2022-08-20T12:07:41;2.30;;;1.10;;
18023;SDS011;9137;50.960;3.118;2022-08-20T12:10:08;2.30;;;0.90;;
18023;SDS011;9137;50.960;3.118;2022-08-20T12:12:37;2.60;;;0.90;;
18023;SDS011;9137;50.960;3.118;2022-08-20T12:15:07;2.88;;;1.00;;
18023;SDS011;9137;50.960;3.118;2022-08-20T12:17:36;3.88;;;1.23;;
18023;SDS011;9137;50.960;3.118;2022-08-20T12:20:04;6.75;;;0.98;;
18023;SDS011;9137;50.960;3.118;2022-08-20T12:22:38;2.60;;;0.82;;
18023;SDS011;9137;50.960;3.118;2022-08-20T12:25:08;3.38;;;0.75;;
18023;SDS011;9137;50.960;3.118;2022-08-20T12:27:35;2.38;;;1.05;;
18023;SDS011;9137;50.960;3.118;2022-08-20T12:30:04;2.45;;;1.02;;
18023;SDS011;9137;50.960;3.118;2022-08-20T12:32:33;6.13;;;1.08;;
18023;SDS011;9137;50.960;3.118;2022-08-20T12:35:00;5.15;;;1.05;;
18023;SDS011;9137;50.960;3.118;2022-08-20T12:37:28;3.30;;;1.00;;
18023;SDS011;9137;50.960;3.118;2022-08-20T12:39:58;3.50;;;1.30;;
18023;SDS011;9137;50.960;3.118;2022-08-20T12:42:26;2.70;;;1.00;;
18023;SDS011;9137;50.960;3.118;2022-08-20T12:44:54;1.30;;;0.80;;
18023;SDS011;9137;50.960;3.118;2022-08-20T12:47:22;1.35;;;0.90;;
18023;SDS011;9137;50.960;3.118;2022-08-20T12:49:53;2.30;;;1.00;;
18023;SDS011;9137;50.960;3.118;2022-08-20T12:52:22;3.53;;;1.10;;
18023;SDS011;9137;50.960;3.118;2022-08-20T12:54:50;2.03;;;0.82;;
18023;SDS011;9137;50.960;3.118;2022-08-20T12:57:23;3.28;;;0.95;;
18023;SDS011;9137;50.960;3.118;2022-08-20T12:59:52;3.77;;;1.10;;
18023;SDS011;9137;50.960;3.118;2022-08-20T13:02:20;2.42;;;0.90;;
18023;SDS011;9137;50.960;3.118;2022-08-20T13:04:47;2.83;;;0.82;;
18023;SDS011;9137;50.960;3.118;2022-08-20T13:07:14;1.63;;;0.98;;
18023;SDS011;9137;50.960;3.118;2022-08-20T13:09:42;2.17;;;0.95;;
18023;SDS011;9137;50.960;3.118;2022-08-20T13:12:09;2.25;;;0.90;;
18023;SDS011;9137;50.960;3.118;2022-08-20T13:14:39;3.25;;;1.00;;
18023;SDS011;9137;50.960;3.118;2022-08-20T13:17:07;3.47;;;1.13;;
18023;SDS011;9137;50.960;3.118;2022-08-20T13:19:35;3.92;;;1.00;;
18023;SDS011;9137;50.960;3.118;2022-08-20T13:22:03;3.57;;;0.93;;
18023;SDS011;9137;50.960;3.118;2022-08-20T13:24:30;2.28;;;1.15;;
18023;SDS011;9137;50.960;3.118;2022-08-20T13:27:07;3.75;;;0.90;;
18023;SDS011;9137;50.960;3.118;2022-08-20T13:29:36;2.40;;;0.90;;
18023;SDS011;9137;50.960;3.118;2022-08-20T13:32:05;3.20;;;1.13;;
18023;SDS011;9137;50.960;3.118;2022-08-20T13:34:33;4.10;;;0.95;;
18023;SDS011;9137;50.960;3.118;2022-08-20T13:37:00;1.83;;;1.20;;
18023;SDS011;9137;50.960;3.118;2022-08-20T13:39:27;2.28;;;1.00;;
18023;SDS011;9137;50.960;3.118;2022-08-20T13:41:54;2.85;;;1.05;;
18023;SDS011;9137;50.960;3.118;2022-08-20T13:44:21;2.30;;;0.90;;
18023;SDS011;9137;50.960;3.118;2022-08-20T13:46:48;3.38;;;0.90;;
18023;SDS011;9137;50.960;3.118;2022-08-20T13:49:16;2.30;;;1.00;;
18023;SDS011;9137;50.960;3.118;2022-08-20T13:51:43;4.55;;;1.15;;
18023;SDS011;9137;50.960;3.118;2022-08-20T13:54:10;2.55;;;1.00;;
18023;SDS011;9137;50.960;3.118;2022-08-20T13:56:37;3.85;;;1.23;;
18023;SDS011;9137;50.960;3.118;2022-08-20T13:59:04;3.10;;;1.23;;
18023;SDS011;9137;50.960;3.118;2022-08-20T14:01:31;3.63;;;1.27;;
18023;SDS011;9137;50.960;3.118;2022-08-20T14:03:57;4.55;;;1.60;;
18023;SDS011;9137;50.960;3.118;2022-08-20T14:06:26;3.28;;;1.08;;
18023;SDS011;9137;50.960;3.118;2022-08-20T14:08:53;5.32;;;1.38;;
18023;SDS011;9137;50.960;3.118;2022-08-20T14:11:20;3.10;;;1.00;;
18023;SDS011;9137;50.960;3.118;2022-08-20T14:13:47;1.88;;;1.00;;
18023;SDS011;9137;50.960;3.118;2022-08-20T14:16:13;3.38;;;0.95;;
18023;SDS011;9137;50.960;3.118;2022-08-20T14:18:40;3.35;;;1.00;;
18023;SDS011;9137;50.960;3.118;2022-08-20T14:21:07;1.85;;;1.00;;
18023;SDS011;9137;50.960;3.118;2022-08-20T14:23:35;3.67;;;1.20;;
18023;SDS011;9137;50.960;3.118;2022-08-20T14:26:02;2.53;;;1.13;;
18023;SDS011;9137;50.960;3.118;2022-08-20T14:28:29;2.97;;;1.20;;
18023;SDS011;9137;50.960;3.118;2022-08-20T14:30:56;3.25;;;1.13;;
18023;SDS011;9137;50.960;3.118;2022-08-20T14:33:23;4.67;;;1.20;;
18023;SDS011;9137;50.960;3.118;2022-08-20T14:35:50;3.00;;;1.00;;
18023;SDS011;9137;50.960;3.118;2022-08-20T14:38:17;3.37;;;1.10;;
18023;SDS011;9137;50.960;3.118;2022-08-20T14:40:45;3.30;;;1.30;;
18023;SDS011;9137;50.960;3.118;2022-08-20T14:43:14;3.45;;;1.20;;
18023;SDS011;9137;50.960;3.118;2022-08-20T14:45:41;2.80;;;1.10;;
18023;SDS011;9137;50.960;3.118;2022-08-20T14:48:08;2.60;;;1.20;;
18023;SDS011;9137;50.960;3.118;2022-08-20T14:50:35;3.25;;;1.42;;
18023;SDS011;9137;50.960;3.118;2022-08-20T14:53:03;2.80;;;1.10;;
18023;SDS011;9137;50.960;3.118;2022-08-20T14:55:31;4.63;;;1.30;;
18023;SDS011;9137;50.960;3.118;2022-08-20T14:58:06;2.55;;;1.02;;
18023;SDS011;9137;50.960;3.118;2022-08-20T15:00:33;4.17;;;1.20;;
18023;SDS011;9137;50.960;3.118;2022-08-20T15:03:00;3.63;;;1.50;;
18023;SDS011;9137;50.960;3.118;2022-08-20T15:05:27;4.03;;;1.30;;
18023;SDS011;9137;50.960;3.118;2022-08-20T15:07:55;3.45;;;1.00;;